createdAt,value
2018-07-30T00:02:30.835Z,5.07
2018-07-30T00:05:00.207Z,4.93
2018-07-30T00:07:29.587Z,4.63
2018-07-30T00:09:58.942Z,5.53
2018-07-30T00:12:28.397Z,4.83
2018-07-30T00:14:57.537Z,5.77
2018-07-30T00:17:26.516Z,5.43
2018-07-30T00:19:55.592Z,5.23
2018-07-30T00:22:24.693Z,5.03
2018-07-30T00:24:53.648Z,4.80
2018-07-30T00:27:22.786Z,5.40
2018-07-30T00:29:51.785Z,4.87
2018-07-30T00:32:20.757Z,4.73
2018-07-30T00:34:50.800Z,5.50
2018-07-30T00:37:19.797Z,5.47
2018-07-30T00:39:48.794Z,5.27
2018-07-30T00:42:17.827Z,4.77
2018-07-30T00:44:46.813Z,4.97
2018-07-30T00:47:15.785Z,6.13
2018-07-30T00:49:44.896Z,5.30
2018-07-30T00:52:13.987Z,5.37
2018-07-30T00:54:42.992Z,5.33
2018-07-30T00:57:12.001Z,4.93
2018-07-30T00:59:40.994Z,5.33
2018-07-30T01:02:10.177Z,5.30
2018-07-30T01:04:39.125Z,5.67
2018-07-30T01:07:08.277Z,5.53
2018-07-30T01:09:37.270Z,5.73
2018-07-30T01:12:06.397Z,5.73
2018-07-30T01:14:35.457Z,6.03
2018-07-30T01:17:04.570Z,6.17
2018-07-30T01:19:33.552Z,6.47
2018-07-30T01:22:02.561Z,6.37
2018-07-30T01:24:31.545Z,6.50
2018-07-30T01:27:00.657Z,6.60
2018-07-30T01:29:29.658Z,5.83
2018-07-30T01:31:58.651Z,5.77
2018-07-30T01:34:27.716Z,5.93
2018-07-30T01:36:56.851Z,6.50
2018-07-30T01:39:25.851Z,6.33
2018-07-30T01:41:54.955Z,5.90
2018-07-30T01:44:23.930Z,6.73
2018-07-30T01:46:52.608Z,6.83
2018-07-30T01:49:21.525Z,6.53
2018-07-30T01:51:50.632Z,6.10
2018-07-30T01:54:19.760Z,6.57
2018-07-30T01:56:48.827Z,6.50
2018-07-30T01:59:18.552Z,6.97
2018-07-30T02:01:47.744Z,6.53
2018-07-30T02:04:16.841Z,7.23
2018-07-30T02:06:45.944Z,6.57
2018-07-30T02:09:15.119Z,6.87
2018-07-30T02:11:44.175Z,7.23
2018-07-30T02:14:13.130Z,7.07
2018-07-30T02:16:42.545Z,6.40
2018-07-30T02:19:12.262Z,7.73
2018-07-30T02:21:41.476Z,7.20
2018-07-30T02:24:10.662Z,7.57
2018-07-30T02:26:39.656Z,6.83
2018-07-30T02:29:08.759Z,7.87
2018-07-30T02:31:37.881Z,7.83
2018-07-30T02:34:14.152Z,7.63
2018-07-30T02:36:43.424Z,7.33
2018-07-30T02:39:14.140Z,7.80
2018-07-30T02:41:43.370Z,7.87
2018-07-30T02:44:12.535Z,8.27
2018-07-30T02:46:41.517Z,7.87
2018-07-30T02:49:11.493Z,7.60
2018-07-30T02:51:40.788Z,7.70
2018-07-30T02:54:10.171Z,7.97
2018-07-30T02:56:39.155Z,8.17
2018-07-30T02:59:07.842Z,6.87
2018-07-30T03:01:36.875Z,7.80
2018-07-30T03:04:05.933Z,7.40
2018-07-30T03:06:35.070Z,7.90
2018-07-30T03:09:06.127Z,8.17
2018-07-30T03:11:35.230Z,7.60
2018-07-30T03:14:04.312Z,8.27
2018-07-30T03:16:33.419Z,8.23
2018-07-30T03:19:02.412Z,8.43
2018-07-30T03:21:31.509Z,7.83
2018-07-30T03:24:00.608Z,8.67
2018-07-30T03:26:29.725Z,8.63
2018-07-30T03:28:59.320Z,8.10
2018-07-30T03:31:28.419Z,9.00
2018-07-30T03:33:57.517Z,8.13
2018-07-30T03:36:26.609Z,8.40
2018-07-30T03:38:55.921Z,7.40
2018-07-30T03:41:25.015Z,8.23
2018-07-30T03:43:54.141Z,8.57
2018-07-30T03:46:23.320Z,8.37
2018-07-30T03:48:52.931Z,8.00
2018-07-30T03:51:21.997Z,8.13
2018-07-30T03:53:51.129Z,8.17
2018-07-30T03:56:20.231Z,7.80
2018-07-30T03:58:49.332Z,8.37
2018-07-30T04:01:18.405Z,8.27
2018-07-30T04:03:47.437Z,8.77
2018-07-30T04:06:16.614Z,8.10
2018-07-30T04:08:45.725Z,8.30
2018-07-30T04:11:14.717Z,8.07
2018-07-30T04:13:43.852Z,8.40
2018-07-30T04:16:12.925Z,8.17
2018-07-30T04:18:42.005Z,8.23
2018-07-30T04:21:10.680Z,8.37
2018-07-30T04:23:40.327Z,8.00
2018-07-30T04:26:09.297Z,8.30
2018-07-30T04:28:38.012Z,8.47
2018-07-30T04:31:07.116Z,8.87
2018-07-30T04:33:36.199Z,7.47
2018-07-30T04:36:05.457Z,8.70
2018-07-30T04:38:34.429Z,8.07
2018-07-30T04:41:03.611Z,8.20
2018-07-30T04:43:32.732Z,8.47
2018-07-30T04:46:01.740Z,8.03
2018-07-30T04:48:31.321Z,7.93
2018-07-30T04:51:00.514Z,8.33
2018-07-30T04:53:29.469Z,7.90
2018-07-30T04:55:58.623Z,8.20
2018-07-30T04:58:27.597Z,8.53
2018-07-30T05:00:56.708Z,8.60
2018-07-30T05:03:25.677Z,8.80
2018-07-30T05:05:54.704Z,7.93
2018-07-30T05:08:23.699Z,7.27
2018-07-30T05:10:52.683Z,7.10
2018-07-30T05:13:21.400Z,7.73
2018-07-30T05:15:50.393Z,7.80
2018-07-30T05:18:19.590Z,7.83
2018-07-30T05:20:48.688Z,7.73
2018-07-30T05:23:17.690Z,8.13
2018-07-30T05:25:46.886Z,7.40
2018-07-30T05:28:15.895Z,7.43
2018-07-30T05:30:44.888Z,7.50
2018-07-30T05:33:14.077Z,7.90
2018-07-30T05:35:43.048Z,7.27
2018-07-30T05:38:12.083Z,7.30
2018-07-30T05:40:41.275Z,7.67
2018-07-30T05:43:10.478Z,7.03
2018-07-30T05:45:39.494Z,7.30
2018-07-30T05:48:08.542Z,7.77
2018-07-30T05:50:37.700Z,6.93
2018-07-30T05:53:06.748Z,7.07
2018-07-30T05:55:35.871Z,7.33
2018-07-30T05:58:05.074Z,7.20
2018-07-30T06:00:34.790Z,7.47
2018-07-30T06:03:03.990Z,7.63
2018-07-30T06:05:33.161Z,7.50
2018-07-30T06:08:02.193Z,7.07
2018-07-30T06:10:31.289Z,7.50
2018-07-30T06:13:00.494Z,7.17
2018-07-30T06:15:29.690Z,8.13
2018-07-30T06:17:58.686Z,7.17
2018-07-30T06:20:27.776Z,6.90
2018-07-30T06:22:56.987Z,7.40
2018-07-30T06:25:26.086Z,7.50
2018-07-30T06:27:55.306Z,7.37
2018-07-30T06:30:24.493Z,6.70
2018-07-30T06:32:53.591Z,6.90
2018-07-30T06:35:22.557Z,6.73
2018-07-30T06:37:51.593Z,7.80
2018-07-30T06:40:20.659Z,7.80
2018-07-30T06:42:49.782Z,7.30
2018-07-30T06:45:18.786Z,6.60
2018-07-30T06:47:47.881Z,6.27
2018-07-30T06:50:16.972Z,6.77
2018-07-30T06:52:46.183Z,6.40
2018-07-30T06:55:15.242Z,6.00
2018-07-30T06:57:44.376Z,6.55
2018-07-30T07:00:13.583Z,5.45
2018-07-30T07:02:42.677Z,6.00
2018-07-30T07:05:12.392Z,5.67
2018-07-30T07:07:41.493Z,6.08
2018-07-30T07:10:11.727Z,6.08
2018-07-30T07:12:40.925Z,6.58
2018-07-30T07:15:12.611Z,5.05
2018-07-30T07:17:42.288Z,5.50
2018-07-30T07:20:11.392Z,5.60
2018-07-30T07:22:40.491Z,5.30
2018-07-30T07:25:09.590Z,5.70
2018-07-30T07:27:38.703Z,5.33
2018-07-30T07:30:08.817Z,4.72
2018-07-30T07:32:37.950Z,4.45
2018-07-30T07:35:07.521Z,5.50
2018-07-30T07:37:36.634Z,4.58
2018-07-30T07:40:06.814Z,4.70
2018-07-30T07:42:35.779Z,4.90
2018-07-30T07:45:05.890Z,4.60
2018-07-30T07:47:34.960Z,4.28
2018-07-30T07:50:04.517Z,4.70
2018-07-30T07:52:33.568Z,4.70
2018-07-30T07:55:02.638Z,4.67
2018-07-30T07:57:31.671Z,4.07
2018-07-30T08:00:00.666Z,4.45
2018-07-30T08:02:29.759Z,4.58
2018-07-30T08:04:59.672Z,4.90
2018-07-30T08:07:28.731Z,4.28
2018-07-30T08:09:57.843Z,4.65
2018-07-30T08:12:26.832Z,4.90
2018-07-30T08:14:55.869Z,4.80
2018-07-30T08:17:25.071Z,4.55
2018-07-30T08:19:54.280Z,4.92
2018-07-30T08:22:23.408Z,4.80
2018-07-30T08:24:53.903Z,4.30
2018-07-30T08:27:23.025Z,4.27
2018-07-30T08:29:52.011Z,3.90
2018-07-30T08:32:21.112Z,4.28
2018-07-30T08:34:50.094Z,4.30
2018-07-30T08:37:19.222Z,3.87
2018-07-30T08:39:48.397Z,4.60
2018-07-30T08:42:17.475Z,4.50
2018-07-30T08:44:46.495Z,4.60
2018-07-30T08:47:15.496Z,4.03
2018-07-30T08:49:44.560Z,3.98
2018-07-30T08:52:13.589Z,4.53
2018-07-30T08:54:42.771Z,4.40
2018-07-30T08:57:11.873Z,4.62
2018-07-30T08:59:40.988Z,4.78
2018-07-30T09:02:10.071Z,4.42
2018-07-30T09:04:39.187Z,4.30
2018-07-30T09:07:08.393Z,4.08
2018-07-30T09:09:37.090Z,3.75
2018-07-30T09:12:06.178Z,4.10
2018-07-30T09:14:35.181Z,3.37
2018-07-30T09:17:04.195Z,3.58
2018-07-30T09:19:33.267Z,3.22
2018-07-30T09:22:02.473Z,3.33
2018-07-30T09:24:31.478Z,3.40
2018-07-30T09:27:00.572Z,3.17
2018-07-30T09:29:29.668Z,3.30
2018-07-30T09:31:58.972Z,3.72
2018-07-30T09:34:28.124Z,3.08
2018-07-30T09:36:57.272Z,3.47
2018-07-30T09:39:26.426Z,3.25
2018-07-30T09:41:55.673Z,3.05
2018-07-30T09:44:24.894Z,3.10
2018-07-30T09:46:53.979Z,3.05
2018-07-30T09:49:23.111Z,3.27
2018-07-30T09:51:52.282Z,3.25
2018-07-30T09:54:21.279Z,3.25
2018-07-30T09:56:50.706Z,3.12
2018-07-30T09:59:19.740Z,3.35
2018-07-30T10:01:48.445Z,3.70
2018-07-30T10:04:17.364Z,3.60
2018-07-30T10:06:46.794Z,3.17
2018-07-30T10:09:15.871Z,3.33
2018-07-30T10:11:44.904Z,3.22
2018-07-30T10:14:13.951Z,3.30
2018-07-30T10:16:43.661Z,3.33
2018-07-30T10:19:12.524Z,3.40
2018-07-30T10:21:41.674Z,3.27
2018-07-30T10:24:10.677Z,3.50
2018-07-30T10:26:40.206Z,3.50
2018-07-30T10:29:09.380Z,3.45
2018-07-30T10:31:38.423Z,3.55
2018-07-30T10:34:07.476Z,3.85
2018-07-30T10:36:36.677Z,3.40
2018-07-30T10:39:07.580Z,3.70
2018-07-30T10:41:37.027Z,3.40
2018-07-30T10:44:06.122Z,3.50
2018-07-30T10:46:35.122Z,3.58
2018-07-30T10:49:04.154Z,3.65
2018-07-30T10:51:33.215Z,3.58
2018-07-30T10:54:02.664Z,3.75
2018-07-30T10:56:31.724Z,3.27
2018-07-30T10:59:00.822Z,3.62
2018-07-30T11:01:29.932Z,3.70
2018-07-30T11:03:59.122Z,3.50
2018-07-30T11:06:28.122Z,3.10
2018-07-30T11:08:57.220Z,3.65
2018-07-30T11:11:26.525Z,3.35
2018-07-30T11:13:55.482Z,2.92
2018-07-30T11:16:24.159Z,3.20
2018-07-30T11:18:54.127Z,3.17
2018-07-30T11:21:23.162Z,3.20
2018-07-30T11:23:52.142Z,2.90
2018-07-30T11:26:22.039Z,2.87
2018-07-30T11:28:51.245Z,2.58
2018-07-30T11:31:20.366Z,2.80
2018-07-30T11:33:49.543Z,3.10
2018-07-30T11:36:18.758Z,3.15
2018-07-30T11:38:47.936Z,2.80
2018-07-30T11:41:17.045Z,3.10
2018-07-30T11:43:46.120Z,2.98
2018-07-30T11:46:15.141Z,3.20
2018-07-30T11:48:44.244Z,2.98
2018-07-30T11:51:13.559Z,3.08
2018-07-30T11:53:42.561Z,2.72
2018-07-30T11:56:11.599Z,2.83
2018-07-30T11:58:41.263Z,2.70
2018-07-30T12:01:10.567Z,3.12
2018-07-30T12:03:39.899Z,3.10
2018-07-30T12:06:09.065Z,2.75
2018-07-30T12:08:38.501Z,2.85
2018-07-30T12:11:07.564Z,2.90
2018-07-30T12:13:36.602Z,3.08
2018-07-30T12:16:05.661Z,2.80
2018-07-30T12:18:34.760Z,2.83
2018-07-30T12:21:03.718Z,2.47
2018-07-30T12:23:32.885Z,2.80
2018-07-30T12:26:01.906Z,2.55
2018-07-30T12:28:30.937Z,2.70
2018-07-30T12:31:00.776Z,2.83
2018-07-30T12:33:29.783Z,2.17
2018-07-30T12:35:58.792Z,2.50
2018-07-30T12:38:29.516Z,2.87
2018-07-30T12:41:01.817Z,2.62
2018-07-30T12:43:31.082Z,2.50
2018-07-30T12:46:00.176Z,2.83
2018-07-30T12:48:29.328Z,2.60
2018-07-30T12:50:58.577Z,2.33
2018-07-30T12:53:27.827Z,3.00
2018-07-30T12:55:56.985Z,2.87
2018-07-30T12:58:26.130Z,2.62
2018-07-30T13:00:55.122Z,2.80
2018-07-30T13:03:24.177Z,3.27
2018-07-30T13:05:53.379Z,2.85
2018-07-30T13:08:22.642Z,2.58
2018-07-30T13:10:52.003Z,2.52
2018-07-30T13:13:21.089Z,2.60
2018-07-30T13:15:50.289Z,2.47
2018-07-30T13:18:19.286Z,2.45
2018-07-30T13:20:49.233Z,2.80
2018-07-30T13:23:18.294Z,2.70
2018-07-30T13:25:47.324Z,2.47
2018-07-30T13:28:16.398Z,2.45
2018-07-30T13:30:45.566Z,2.62
2018-07-30T13:33:14.699Z,2.70
2018-07-30T13:35:43.800Z,2.33
2018-07-30T13:38:12.903Z,2.47
2018-07-30T13:40:42.101Z,2.50
2018-07-30T13:43:11.100Z,2.90
2018-07-30T13:45:40.127Z,2.35
2018-07-30T13:48:09.212Z,2.62
2018-07-30T13:50:38.189Z,3.00
2018-07-30T13:53:07.309Z,2.83
2018-07-30T13:55:36.519Z,2.75
2018-07-30T13:58:05.898Z,2.20
2018-07-30T14:00:34.907Z,2.45
2018-07-30T14:03:03.923Z,2.30
2018-07-30T14:05:32.989Z,2.75
2018-07-30T14:08:02.091Z,2.33
2018-07-30T14:10:31.635Z,3.02
2018-07-30T14:13:00.762Z,2.20
2018-07-30T14:15:29.754Z,2.47
2018-07-30T14:17:58.921Z,2.37
2018-07-30T14:20:27.995Z,2.70
2018-07-30T14:22:57.093Z,2.70
2018-07-30T14:25:26.131Z,2.60
2018-07-30T14:27:55.210Z,2.22
2018-07-30T14:30:25.315Z,2.73
2018-07-30T14:32:54.719Z,2.37
2018-07-30T14:35:24.171Z,2.45
2018-07-30T14:37:53.228Z,2.50
2018-07-30T14:40:22.243Z,2.30
2018-07-30T14:42:51.328Z,2.40
2018-07-30T14:45:21.253Z,2.30
2018-07-30T14:47:50.343Z,2.55
2018-07-30T14:50:19.416Z,2.70
2018-07-30T14:52:48.423Z,2.33
2018-07-30T14:55:17.497Z,2.30
2018-07-30T14:57:46.636Z,2.58
2018-07-30T15:00:15.734Z,2.47
2018-07-30T15:02:45.550Z,2.60
2018-07-30T15:05:18.969Z,2.90
2018-07-30T15:07:48.238Z,2.52
2018-07-30T15:10:17.212Z,2.75
2018-07-30T15:12:46.243Z,2.40
2018-07-30T15:15:15.275Z,2.72
2018-07-30T15:17:44.507Z,2.55
2018-07-30T15:20:13.325Z,3.00
2018-07-30T15:22:42.497Z,2.80
2018-07-30T15:25:11.571Z,2.35
2018-07-30T15:27:40.572Z,2.70
2018-07-30T15:30:09.570Z,2.67
2018-07-30T15:32:38.626Z,2.42
2018-07-30T15:35:07.850Z,2.70
2018-07-30T15:37:36.860Z,2.95
2018-07-30T15:40:06.092Z,2.52
2018-07-30T15:42:35.219Z,2.60
2018-07-30T15:45:04.743Z,2.75
2018-07-30T15:47:33.913Z,2.80
2018-07-30T15:50:04.171Z,2.50
2018-07-30T15:52:33.183Z,2.50
2018-07-30T15:55:02.375Z,2.47
2018-07-30T15:57:31.463Z,2.85
2018-07-30T16:00:00.502Z,2.80
2018-07-30T16:02:30.604Z,2.87
2018-07-30T16:04:59.778Z,2.90
2018-07-30T16:07:28.783Z,3.10
2018-07-30T16:09:57.983Z,2.47
2018-07-30T16:12:27.189Z,2.70
2018-07-30T16:14:56.387Z,2.80
2018-07-30T16:17:25.594Z,2.77
2018-07-30T16:19:54.688Z,2.95
2018-07-30T16:22:23.726Z,2.60
2018-07-30T16:24:52.670Z,2.90
2018-07-30T16:27:21.779Z,3.00
2018-07-30T16:29:50.911Z,2.80
2018-07-30T16:32:19.981Z,2.67
2018-07-30T16:34:49.187Z,2.90
2018-07-30T16:37:18.273Z,3.08
2018-07-30T16:39:47.397Z,2.90
2018-07-30T16:42:16.795Z,2.70
2018-07-30T16:44:45.999Z,3.10
2018-07-30T16:47:15.535Z,2.90
2018-07-30T16:49:44.595Z,3.10
2018-07-30T16:52:13.595Z,2.77
2018-07-30T16:54:42.642Z,2.90
2018-07-30T16:57:12.621Z,2.70
2018-07-30T16:59:41.600Z,3.23
2018-07-30T17:02:10.540Z,2.80
2018-07-30T17:04:39.573Z,2.70
2018-07-30T17:07:08.693Z,2.77
2018-07-30T17:09:38.310Z,2.77
2018-07-30T17:12:07.622Z,3.10
2018-07-30T17:14:36.712Z,3.03
2018-07-30T17:17:05.916Z,2.83
2018-07-30T17:19:34.932Z,3.03
2018-07-30T17:22:04.251Z,3.23
2018-07-30T17:24:33.314Z,3.20
2018-07-30T17:27:02.619Z,3.27
2018-07-30T17:29:31.722Z,3.53
2018-07-30T17:32:00.917Z,3.23
2018-07-30T17:34:30.015Z,3.37
2018-07-30T17:36:58.996Z,3.10
2018-07-30T17:39:28.041Z,3.57
2018-07-30T17:41:58.736Z,3.13
2018-07-30T17:44:29.456Z,3.17
2018-07-30T17:46:58.136Z,3.03
2018-07-30T17:49:26.717Z,3.20
2018-07-30T17:51:55.663Z,3.20
2018-07-30T17:54:25.681Z,3.30
2018-07-30T17:56:54.778Z,3.20
2018-07-30T17:59:24.319Z,3.70
2018-07-30T18:01:53.386Z,3.50
2018-07-30T18:04:22.997Z,3.47
2018-07-30T18:06:52.011Z,3.40
2018-07-30T18:09:21.134Z,3.37
2018-07-30T18:11:50.131Z,3.57
2018-07-30T18:14:20.893Z,3.80
2018-07-30T18:16:49.959Z,3.23
2018-07-30T18:19:19.142Z,3.53
2018-07-30T18:21:48.334Z,3.70
2018-07-30T18:24:17.314Z,3.70
2018-07-30T18:26:46.632Z,3.40
2018-07-30T18:29:15.652Z,4.20
2018-07-30T18:31:44.819Z,7.83
2018-07-30T18:34:13.969Z,4.70
2018-07-30T18:36:43.036Z,4.20
2018-07-30T18:39:12.804Z,3.60
2018-07-30T18:41:43.197Z,3.60
2018-07-30T18:44:12.893Z,4.20
2018-07-30T18:46:42.495Z,4.10
2018-07-30T18:49:11.843Z,5.00
2018-07-30T18:51:40.899Z,5.30
2018-07-30T18:54:10.017Z,4.80
2018-07-30T18:56:39.308Z,5.10
2018-07-30T18:59:09.091Z,5.63
2018-07-30T19:01:37.934Z,3.97
2018-07-30T19:04:07.260Z,4.60
2018-07-30T19:06:36.453Z,4.77
2018-07-30T19:09:07.886Z,4.00
2018-07-30T19:11:37.228Z,4.40
2018-07-30T19:14:07.142Z,4.33
2018-07-30T19:16:36.485Z,4.03
2018-07-30T19:19:06.504Z,5.00
2018-07-30T19:21:37.190Z,5.13
2018-07-30T19:24:06.682Z,4.57
2018-07-30T19:26:35.798Z,4.73
2018-07-30T19:29:05.050Z,5.33
2018-07-30T19:31:34.373Z,4.67
2018-07-30T19:34:03.654Z,4.63
2018-07-30T19:36:32.326Z,4.63
2018-07-30T19:39:01.568Z,4.77
2018-07-30T19:41:31.076Z,4.93
2018-07-30T19:44:00.538Z,4.70
2018-07-30T19:46:30.303Z,4.60
2018-07-30T19:48:59.696Z,4.77
2018-07-30T19:51:29.123Z,5.03
2018-07-30T19:53:58.632Z,5.10
2018-07-30T19:56:29.254Z,5.77
2018-07-30T19:58:59.332Z,5.60
2018-07-30T20:01:28.729Z,5.27
2018-07-30T20:03:58.013Z,4.73
2018-07-30T20:06:27.495Z,5.17
2018-07-30T20:08:56.800Z,5.93
2018-07-30T20:11:26.012Z,5.40
2018-07-30T20:13:55.787Z,5.43
2018-07-30T20:16:25.463Z,5.77
2018-07-30T20:18:54.772Z,5.50
2018-07-30T20:21:24.027Z,5.70
2018-07-30T20:23:53.336Z,5.27
2018-07-30T20:26:22.579Z,5.90
2018-07-30T20:28:52.140Z,5.60
2018-07-30T20:31:25.463Z,5.53
2018-07-30T20:33:56.105Z,5.27
2018-07-30T20:36:26.301Z,5.43
2018-07-30T20:38:55.512Z,5.50
2018-07-30T20:41:25.537Z,5.60
2018-07-30T20:43:54.826Z,4.70
2018-07-30T20:46:24.129Z,5.00
2018-07-30T20:48:53.178Z,5.10
2018-07-30T20:51:22.969Z,5.07
2018-07-30T20:53:52.041Z,5.13
2018-07-30T20:56:21.146Z,5.40
2018-07-30T20:58:50.248Z,5.10
2018-07-30T21:01:19.266Z,5.27
2018-07-30T21:03:48.337Z,5.60
2018-07-30T21:06:17.331Z,5.37
2018-07-30T21:08:46.767Z,4.23
2018-07-30T21:11:15.940Z,5.20
2018-07-30T21:13:44.946Z,5.27
2018-07-30T21:16:13.915Z,4.90
2018-07-30T21:18:43.038Z,4.87
2018-07-30T21:21:12.261Z,4.80
2018-07-30T21:23:41.157Z,5.10
2018-07-30T21:26:10.336Z,4.93
2018-07-30T21:28:39.429Z,5.33
2018-07-30T21:31:08.530Z,4.80
2018-07-30T21:33:37.634Z,5.20
2018-07-30T21:36:06.831Z,4.57
2018-07-30T21:38:36.044Z,5.20
2018-07-30T21:41:05.336Z,4.80
2018-07-30T21:43:34.645Z,4.77
2018-07-30T21:46:03.845Z,4.73
2018-07-30T21:48:33.078Z,4.87
2018-07-30T21:51:02.057Z,4.87
2018-07-30T21:53:30.993Z,4.60
2018-07-30T21:56:00.036Z,4.77
2018-07-30T21:58:29.155Z,4.87
2018-07-30T22:00:59.066Z,4.23
2018-07-30T22:03:28.358Z,4.17
2018-07-30T22:05:59.419Z,4.67
2018-07-30T22:08:28.909Z,4.20
2018-07-30T22:10:57.907Z,4.90
2018-07-30T22:13:26.903Z,4.23
2018-07-30T22:15:56.287Z,4.50
2018-07-30T22:18:25.915Z,4.43
2018-07-30T22:20:56.101Z,4.47
2018-07-30T22:23:25.140Z,4.40
2018-07-30T22:25:54.140Z,4.33
2018-07-30T22:28:23.250Z,4.47
2018-07-30T22:30:52.360Z,4.50
2018-07-30T22:33:21.365Z,4.60
2018-07-30T22:35:50.537Z,4.57
2018-07-30T22:38:19.636Z,4.17
2018-07-30T22:40:48.732Z,4.67
2018-07-30T22:43:17.845Z,4.67
2018-07-30T22:45:46.925Z,4.43
2018-07-30T22:48:16.041Z,4.50
2018-07-30T22:50:45.234Z,4.00
2018-07-30T22:55:45.786Z,4.27
2018-07-30T22:58:15.194Z,4.43
2018-07-30T23:00:44.447Z,4.37
2018-07-30T23:03:13.493Z,4.10
2018-07-30T23:05:49.263Z,4.20
2018-07-30T23:08:18.758Z,3.87
2018-07-30T23:10:47.955Z,4.03
2018-07-30T23:13:16.967Z,4.03
2018-07-30T23:15:46.062Z,4.33
2018-07-30T23:18:15.148Z,4.33
2018-07-30T23:20:44.276Z,3.97
2018-07-30T23:23:13.450Z,4.00
2018-07-30T23:25:42.548Z,4.70
2018-07-30T23:28:11.758Z,4.10
2018-07-30T23:30:40.766Z,4.50
2018-07-30T23:33:09.847Z,4.37
2018-07-30T23:35:38.946Z,4.40
2018-07-30T23:38:07.970Z,4.43
2018-07-30T23:40:37.044Z,4.43
2018-07-30T23:43:06.038Z,4.03
2018-07-30T23:45:35.240Z,4.73
2018-07-30T23:48:04.264Z,4.00
2018-07-30T23:50:33.440Z,4.40
2018-07-30T23:53:02.649Z,4.43
2018-07-30T23:55:32.560Z,4.40
2018-07-30T23:58:01.532Z,3.73
